CDT,Max TemperatureF,Mean TemperatureF,Min TemperatureF,Max Dew PointF,MeanDew PointF,Min DewpointF,Max Humidity, Mean Humidity, Min Humidity, Max Sea Level PressureIn, Mean Sea Level PressureIn, Min Sea Level PressureIn, Max VisibilityMiles, Mean VisibilityMiles, Min VisibilityMiles, Max Wind SpeedMPH, Mean Wind SpeedMPH, Max Gust SpeedMPH,PrecipitationIn, CloudCover, Events, WindDirDegrees
2013-9-1,78,68,59,70,62,57,100,82,51,29.83,29.75,29.69,10,10,5,12,6,18,0.04,3,Thunderstorm,270
2013-9-2,64,58,51,57,50,46,94,75,59,30.00,29.94,29.83,10,10,10,15,7,22,0.00,5,,345
2013-9-3,73,60,46,54,51,46,100,72,47,30.05,29.99,29.93,10,10,10,10,5,18,0.00,0,,279
2013-9-4,69,60,51,57,52,43,94,77,59,30.19,30.07,29.94,10,10,10,13,6,,0.00,3,,360
2013-9-5,66,54,44,52,46,41,94,70,42,30.32,30.26,30.19,10,10,9,10,6,,0.00,0,,120
2013-9-6,78,62,46,66,56,46,100,75,55,30.22,30.08,29.91,10,10,9,14,5,16,0.00,1,,223
2013-9-7,84,71,60,72,65,57,94,82,65,30.07,29.92,29.86,10,10,3,16,6,23,0.49,4,Thunderstorm,309
2013-9-8,69,60,50,57,53,48,100,75,49,30.15,30.09,30.00,10,10,10,13,8,17,0.00,1,,73
2013-9-9,77,68,60,73,65,57,100,90,82,30.00,29.84,29.68,10,7,2,17,5,21,0.00,5,,178
2013-9-10,86,78,68,73,68,63,100,77,55,29.93,29.82,29.68,10,9,1,13,4,21,0.00,2,Thunderstorm,265
2013-9-11,80,71,62,66,64,55,100,79,54,29.98,29.94,29.89,10,10,8,10,6,16,0.00,1,,260
2013-9-12,68,57,46,55,50,43,88,72,46,30.16,30.04,29.95,10,10,10,17,7,29,0.00,3,,355
2013-9-13,59,49,39,46,41,36,100,73,51,30.23,30.18,30.13,10,10,4,13,6,17,0.00,1,,32
2013-9-14,68,54,41,54,46,41,100,71,46,30.15,30.06,29.96,10,10,5,16,4,23,0.00,0,,238
2013-9-15,62,52,41,55,49,37,100,83,63,30.28,30.08,29.95,10,10,6,15,6,23,0.15,6,,337
2013-9-16,55,45,35,43,39,34,100,75,47,30.44,30.37,30.29,10,10,10,15,7,21,0.00,1,,46
2013-9-17,64,48,33,54,46,34,100,82,63,30.36,30.26,30.11,10,10,7,16,4,22,0.00,2,,187
2013-9-18,71,64,57,64,60,52,100,88,78,30.10,29.97,29.87,10,8,3,14,7,20,0.20,6,Thunderstorm,188
2013-9-19,78,68,57,72,66,57,100,89,74,29.88,29.79,29.67,10,5,0,16,6,25,0.09,4,,185
2013-9-20,73,64,55,66,61,48,100,81,60,29.78,29.69,29.64,10,9,6,13,7,17,0.00,5,,270
2013-9-21,57,48,42,48,43,39,100,74,54,29.97,29.86,29.78,10,10,6,17,6,22,0.00,5,,338
2013-9-22,51,43,35,41,38,36,100,78,58,30.11,30.06,29.98,10,10,10,9,4,,0.00,5,,32
2013-9-23,57,45,33,46,42,34,100,81,63,30.17,30.12,30.09,,,,13,3,17,0.00,2,,168
2013-9-24,64,50,37,57,48,37,100,84,64,30.10,30.06,30.01,10,9,4,14,3,,0.00,2,,147
2013-9-25,64,52,39,55,47,39,100,86,68,30.04,30.02,30.00,10,5,0,8,2,,0.00,3,,37
2013-9-26,68,57,46,59,53,45,100,84,64,30.11,30.09,30.08,10,6,0,10,4,,0.00,2,,124
2013-9-27,73,58,42,61,52,43,100,77,55,30.16,30.11,30.07,10,7,0,14,4,18,0.00,2,,179
2013-9-28,71,64,57,63,58,54,94,80,68,30.06,29.94,29.78,10,10,4,21,11,29,0.16,2,,193
2013-9-29,66,57,48,54,49,46,94,76,49,30.03,29.97,29.89,10,10,6,12,5,,0.01,0,,235
2013-9-30,69,58,46,54,48,45,93,70,43,29.97,29.88,29.78,10,10,10,18,6,25,0.00,0,,207